Terminal Aerodrome Forecast
Issued by NWS

Home | Current Version | Previous Version | Graphics & Text | Print | Product List | Glossary On
Versions: 1 2 3 4 5 6 7 8 9 10 11 12 13 14 15 16 17 18 19 20 21
104
FTUS43 KTOP 212339
TAFMHK
TAF
KMHK 212339Z 2200/2224 18007KT P6SM BKN035
     FM220200 16005KT P6SM VCSH BKN070
     FM220400 29004KT P6SM SCT120
     FM221000 28010KT 5SM -RASN BR OVC010
     FM221500 29016G24KT 3SM -RASN BR OVC010=

USA.gov is the U.S. government's official web portal to all federal, state and local government web resources and services.